sensor_id;sensor_type;location;lat;lon;timestamp;P1;durP1;ratioP1;P2;durP2;ratioP2
57111;SDS011;42992;49.084;19.300;2023-07-20T00:00:33;10.07;;;4.60;;
57111;SDS011;42992;49.084;19.300;2023-07-20T00:03:19;12.45;;;4.32;;
57111;SDS011;42992;49.084;19.300;2023-07-20T00:05:44;8.07;;;4.50;;
57111;SDS011;42992;49.084;19.300;2023-07-20T00:08:09;6.68;;;4.10;;
57111;SDS011;42992;49.084;19.300;2023-07-20T00:10:35;9.63;;;4.30;;
57111;SDS011;42992;49.084;19.300;2023-07-20T00:13:00;11.27;;;4.65;;
57111;SDS011;42992;49.084;19.300;2023-07-20T00:15:25;7.03;;;3.50;;
57111;SDS011;42992;49.084;19.300;2023-07-20T00:17:50;7.43;;;4.10;;
57111;SDS011;42992;49.084;19.300;2023-07-20T00:20:16;8.77;;;4.60;;
57111;SDS011;42992;49.084;19.300;2023-07-20T00:22:41;9.43;;;4.13;;
57111;SDS011;42992;49.084;19.300;2023-07-20T00:25:07;10.10;;;4.47;;
57111;SDS011;42992;49.084;19.300;2023-07-20T00:27:32;8.23;;;4.40;;
57111;SDS011;42992;49.084;19.300;2023-07-20T00:29:57;9.07;;;4.07;;
57111;SDS011;42992;49.084;19.300;2023-07-20T00:32:22;14.80;;;5.03;;
57111;SDS011;42992;49.084;19.300;2023-07-20T00:34:48;15.43;;;4.80;;
57111;SDS011;42992;49.084;19.300;2023-07-20T00:37:13;8.35;;;4.68;;
57111;SDS011;42992;49.084;19.300;2023-07-20T00:39:38;9.30;;;4.22;;
57111;SDS011;42992;49.084;19.300;2023-07-20T00:42:03;11.68;;;4.38;;
57111;SDS011;42992;49.084;19.300;2023-07-20T00:44:29;8.57;;;4.25;;
57111;SDS011;42992;49.084;19.300;2023-07-20T00:46:54;11.05;;;4.38;;
57111;SDS011;42992;49.084;19.300;2023-07-20T00:49:20;9.20;;;4.60;;
57111;SDS011;42992;49.084;19.300;2023-07-20T00:51:47;7.25;;;4.40;;
57111;SDS011;42992;49.084;19.300;2023-07-20T00:54:12;12.48;;;4.47;;
57111;SDS011;42992;49.084;19.300;2023-07-20T00:56:38;7.55;;;4.20;;
57111;SDS011;42992;49.084;19.300;2023-07-20T00:59:04;11.10;;;4.90;;
57111;SDS011;42992;49.084;19.300;2023-07-20T01:01:29;10.85;;;4.57;;
57111;SDS011;42992;49.084;19.300;2023-07-20T01:03:54;9.52;;;4.93;;
57111;SDS011;42992;49.084;19.300;2023-07-20T01:09:02;8.35;;;4.40;;
57111;SDS011;42992;49.084;19.300;2023-07-20T01:11:36;13.45;;;5.35;;
57111;SDS011;42992;49.084;19.300;2023-07-20T01:14:02;10.35;;;4.85;;
57111;SDS011;42992;49.084;19.300;2023-07-20T01:16:28;9.95;;;4.40;;
57111;SDS011;42992;49.084;19.300;2023-07-20T01:18:53;12.65;;;4.72;;
57111;SDS011;42992;49.084;19.300;2023-07-20T01:21:21;11.13;;;4.72;;
57111;SDS011;42992;49.084;19.300;2023-07-20T01:31:30;9.68;;;5.03;;
57111;SDS011;42992;49.084;19.300;2023-07-20T01:33:58;10.52;;;5.03;;
57111;SDS011;42992;49.084;19.300;2023-07-20T01:36:24;8.43;;;4.78;;
57111;SDS011;42992;49.084;19.300;2023-07-20T01:38:50;14.38;;;5.05;;
57111;SDS011;42992;49.084;19.300;2023-07-20T01:41:16;8.93;;;4.88;;
57111;SDS011;42992;49.084;19.300;2023-07-20T01:43:42;9.48;;;5.00;;
57111;SDS011;42992;49.084;19.300;2023-07-20T01:46:07;11.23;;;5.18;;
57111;SDS011;42992;49.084;19.300;2023-07-20T01:48:32;11.50;;;5.00;;
57111;SDS011;42992;49.084;19.300;2023-07-20T01:50:57;12.02;;;5.00;;
57111;SDS011;42992;49.084;19.300;2023-07-20T01:53:23;7.60;;;4.55;;
57111;SDS011;42992;49.084;19.300;2023-07-20T01:55:48;10.73;;;5.38;;
57111;SDS011;42992;49.084;19.300;2023-07-20T01:58:13;10.35;;;4.72;;
57111;SDS011;42992;49.084;19.300;2023-07-20T02:00:38;13.02;;;4.70;;
57111;SDS011;42992;49.084;19.300;2023-07-20T02:03:04;13.50;;;5.00;;
57111;SDS011;42992;49.084;19.300;2023-07-20T02:05:29;12.60;;;5.00;;
57111;SDS011;42992;49.084;19.300;2023-07-20T02:07:54;13.05;;;5.15;;
57111;SDS011;42992;49.084;19.300;2023-07-20T02:10:19;10.35;;;4.68;;
57111;SDS011;42992;49.084;19.300;2023-07-20T02:12:45;9.68;;;4.68;;
57111;SDS011;42992;49.084;19.300;2023-07-20T02:18:02;11.43;;;5.18;;
57111;SDS011;42992;49.084;19.300;2023-07-20T02:20:28;10.88;;;4.68;;
57111;SDS011;42992;49.084;19.300;2023-07-20T02:22:53;13.18;;;4.88;;
57111;SDS011;42992;49.084;19.300;2023-07-20T02:25:19;6.72;;;4.97;;
57111;SDS011;42992;49.084;19.300;2023-07-20T02:27:44;7.45;;;5.05;;
57111;SDS011;42992;49.084;19.300;2023-07-20T02:30:09;9.23;;;5.30;;
57111;SDS011;42992;49.084;19.300;2023-07-20T02:32:34;10.10;;;5.18;;
57111;SDS011;42992;49.084;19.300;2023-07-20T02:35:00;14.48;;;5.38;;
57111;SDS011;42992;49.084;19.300;2023-07-20T02:37:25;6.97;;;4.60;;
57111;SDS011;42992;49.084;19.300;2023-07-20T02:39:50;9.45;;;5.03;;
57111;SDS011;42992;49.084;19.300;2023-07-20T02:42:15;7.18;;;5.03;;
57111;SDS011;42992;49.084;19.300;2023-07-20T02:44:41;7.38;;;5.13;;
57111;SDS011;42992;49.084;19.300;2023-07-20T02:47:06;7.85;;;5.32;;
57111;SDS011;42992;49.084;19.300;2023-07-20T02:49:31;9.32;;;5.10;;
57111;SDS011;42992;49.084;19.300;2023-07-20T02:51:56;9.45;;;5.28;;
57111;SDS011;42992;49.084;19.300;2023-07-20T02:54:22;10.48;;;4.80;;
57111;SDS011;42992;49.084;19.300;2023-07-20T02:56:47;10.52;;;5.05;;
57111;SDS011;42992;49.084;19.300;2023-07-20T02:59:12;7.72;;;5.00;;
57111;SDS011;42992;49.084;19.300;2023-07-20T03:01:37;9.85;;;4.90;;
57111;SDS011;42992;49.084;19.300;2023-07-20T03:04:03;13.82;;;5.40;;
57111;SDS011;42992;49.084;19.300;2023-07-20T03:06:29;10.30;;;5.85;;
57111;SDS011;42992;49.084;19.300;2023-07-20T03:08:54;10.13;;;4.80;;
57111;SDS011;42992;49.084;19.300;2023-07-20T03:11:19;10.70;;;5.93;;
57111;SDS011;42992;49.084;19.300;2023-07-20T03:13:46;9.07;;;5.18;;
57111;SDS011;42992;49.084;19.300;2023-07-20T03:16:12;11.10;;;5.43;;
57111;SDS011;42992;49.084;19.300;2023-07-20T03:18:40;13.25;;;5.40;;
57111;SDS011;42992;49.084;19.300;2023-07-20T03:21:06;11.15;;;5.30;;
57111;SDS011;42992;49.084;19.300;2023-07-20T03:23:31;9.95;;;4.65;;
57111;SDS011;42992;49.084;19.300;2023-07-20T03:25:56;7.95;;;4.53;;
57111;SDS011;42992;49.084;19.300;2023-07-20T03:28:22;10.80;;;5.03;;
57111;SDS011;42992;49.084;19.300;2023-07-20T03:30:52;9.00;;;4.82;;
57111;SDS011;42992;49.084;19.300;2023-07-20T03:33:17;6.63;;;4.40;;
57111;SDS011;42992;49.084;19.300;2023-07-20T03:35:42;8.52;;;4.97;;
57111;SDS011;42992;49.084;19.300;2023-07-20T03:38:08;7.18;;;4.88;;
57111;SDS011;42992;49.084;19.300;2023-07-20T03:40:33;9.38;;;4.88;;
57111;SDS011;42992;49.084;19.300;2023-07-20T03:42:58;8.82;;;4.80;;
57111;SDS011;42992;49.084;19.300;2023-07-20T03:45:24;9.50;;;4.97;;
57111;SDS011;42992;49.084;19.300;2023-07-20T03:47:49;8.65;;;5.30;;
57111;SDS011;42992;49.084;19.300;2023-07-20T03:50:14;8.68;;;4.93;;
57111;SDS011;42992;49.084;19.300;2023-07-20T03:52:40;12.30;;;4.95;;
57111;SDS011;42992;49.084;19.300;2023-07-20T03:55:05;8.25;;;5.10;;
57111;SDS011;42992;49.084;19.300;2023-07-20T03:57:31;7.85;;;5.18;;
57111;SDS011;42992;49.084;19.300;2023-07-20T03:59:58;9.23;;;5.00;;
57111;SDS011;42992;49.084;19.300;2023-07-20T04:02:23;9.85;;;5.15;;
57111;SDS011;42992;49.084;19.300;2023-07-20T04:04:48;7.05;;;4.70;;
57111;SDS011;42992;49.084;19.300;2023-07-20T04:07:14;8.45;;;5.43;;
57111;SDS011;42992;49.084;19.300;2023-07-20T04:09:39;9.52;;;5.28;;
57111;SDS011;42992;49.084;19.300;2023-07-20T04:12:05;8.30;;;4.80;;
57111;SDS011;42992;49.084;19.300;2023-07-20T04:14:31;8.63;;;4.70;;
57111;SDS011;42992;49.084;19.300;2023-07-20T04:16:56;6.88;;;4.55;;
57111;SDS011;42992;49.084;19.300;2023-07-20T04:19:21;12.73;;;4.90;;
57111;SDS011;42992;49.084;19.300;2023-07-20T04:21:46;7.60;;;4.70;;
57111;SDS011;42992;49.084;19.300;2023-07-20T04:24:11;9.82;;;4.75;;
57111;SDS011;42992;49.084;19.300;2023-07-20T04:26:37;12.95;;;5.07;;
57111;SDS011;42992;49.084;19.300;2023-07-20T04:29:02;10.50;;;5.05;;
57111;SDS011;42992;49.084;19.300;2023-07-20T04:31:28;8.02;;;4.80;;
57111;SDS011;42992;49.084;19.300;2023-07-20T04:33:53;13.45;;;5.00;;
57111;SDS011;42992;49.084;19.300;2023-07-20T04:36:19;11.70;;;5.03;;
57111;SDS011;42992;49.084;19.300;2023-07-20T04:38:47;8.02;;;4.97;;
57111;SDS011;42992;49.084;19.300;2023-07-20T04:41:13;9.18;;;4.93;;
57111;SDS011;42992;49.084;19.300;2023-07-20T04:43:42;9.20;;;4.30;;
57111;SDS011;42992;49.084;19.300;2023-07-20T04:46:08;8.45;;;4.70;;
57111;SDS011;42992;49.084;19.300;2023-07-20T04:48:33;7.57;;;5.03;;
57111;SDS011;42992;49.084;19.300;2023-07-20T04:50:58;9.93;;;5.03;;
57111;SDS011;42992;49.084;19.300;2023-07-20T04:53:23;11.13;;;5.32;;
57111;SDS011;42992;49.084;19.300;2023-07-20T04:55:49;8.23;;;5.22;;
57111;SDS011;42992;49.084;19.300;2023-07-20T04:58:19;7.90;;;4.78;;
57111;SDS011;42992;49.084;19.300;2023-07-20T05:00:45;11.15;;;5.00;;
57111;SDS011;42992;49.084;19.300;2023-07-20T05:03:10;10.32;;;5.07;;
57111;SDS011;42992;49.084;19.300;2023-07-20T05:05:35;11.82;;;4.72;;
57111;SDS011;42992;49.084;19.300;2023-07-20T05:08:00;9.45;;;4.22;;
57111;SDS011;42992;49.084;19.300;2023-07-20T05:10:25;15.52;;;5.00;;
57111;SDS011;42992;49.084;19.300;2023-07-20T05:12:51;8.50;;;4.28;;
57111;SDS011;42992;49.084;19.300;2023-07-20T05:15:16;10.68;;;5.00;;
57111;SDS011;42992;49.084;19.300;2023-07-20T05:17:41;8.38;;;4.60;;
57111;SDS011;42992;49.084;19.300;2023-07-20T05:20:06;8.60;;;4.10;;
57111;SDS011;42992;49.084;19.300;2023-07-20T05:22:34;9.95;;;4.97;;
57111;SDS011;42992;49.084;19.300;2023-07-20T05:25:00;9.48;;;4.72;;
57111;SDS011;42992;49.084;19.300;2023-07-20T05:27:25;9.17;;;4.17;;
57111;SDS011;42992;49.084;19.300;2023-07-20T05:29:50;7.00;;;4.47;;
57111;SDS011;42992;49.084;19.300;2023-07-20T05:32:16;7.40;;;4.10;;
57111;SDS011;42992;49.084;19.300;2023-07-20T05:34:41;5.72;;;3.65;;
57111;SDS011;42992;49.084;19.300;2023-07-20T05:37:07;7.15;;;3.95;;
57111;SDS011;42992;49.084;19.300;2023-07-20T05:39:32;8.80;;;4.25;;
57111;SDS011;42992;49.084;19.300;2023-07-20T05:41:58;7.88;;;3.83;;
57111;SDS011;42992;49.084;19.300;2023-07-20T05:44:23;11.00;;;4.07;;
57111;SDS011;42992;49.084;19.300;2023-07-20T05:46:48;8.32;;;4.47;;
57111;SDS011;42992;49.084;19.300;2023-07-20T05:49:13;7.90;;;3.55;;
57111;SDS011;42992;49.084;19.300;2023-07-20T05:51:39;10.15;;;4.15;;
57111;SDS011;42992;49.084;19.300;2023-07-20T05:54:04;7.13;;;3.78;;
57111;SDS011;42992;49.084;19.300;2023-07-20T05:56:30;10.38;;;4.03;;
57111;SDS011;42992;49.084;19.300;2023-07-20T05:58:55;12.40;;;4.43;;
57111;SDS011;42992;49.084;19.300;2023-07-20T06:01:21;6.38;;;3.78;;
57111;SDS011;42992;49.084;19.300;2023-07-20T06:03:52;7.47;;;3.83;;
57111;SDS011;42992;49.084;19.300;2023-07-20T06:06:17;8.73;;;3.67;;
57111;SDS011;42992;49.084;19.300;2023-07-20T06:08:42;6.82;;;3.70;;
57111;SDS011;42992;49.084;19.300;2023-07-20T06:11:08;8.32;;;4.13;;
57111;SDS011;42992;49.084;19.300;2023-07-20T06:13:33;6.75;;;3.90;;
57111;SDS011;42992;49.084;19.300;2023-07-20T06:15:58;7.35;;;3.40;;
57111;SDS011;42992;49.084;19.300;2023-07-20T06:18:23;7.78;;;3.65;;
57111;SDS011;42992;49.084;19.300;2023-07-20T06:20:49;12.38;;;3.97;;
57111;SDS011;42992;49.084;19.300;2023-07-20T06:23:15;9.45;;;3.35;;
57111;SDS011;42992;49.084;19.300;2023-07-20T06:25:40;10.02;;;3.65;;
57111;SDS011;42992;49.084;19.300;2023-07-20T06:28:05;8.65;;;3.85;;
57111;SDS011;42992;49.084;19.300;2023-07-20T06:30:33;7.20;;;3.63;;
57111;SDS011;42992;49.084;19.300;2023-07-20T06:32:58;5.90;;;3.60;;
57111;SDS011;42992;49.084;19.300;2023-07-20T06:35:24;6.60;;;3.15;;
57111;SDS011;42992;49.084;19.300;2023-07-20T06:37:50;6.70;;;3.00;;
57111;SDS011;42992;49.084;19.300;2023-07-20T06:40:15;8.57;;;3.13;;
57111;SDS011;42992;49.084;19.300;2023-07-20T06:42:40;8.80;;;3.45;;
57111;SDS011;42992;49.084;19.300;2023-07-20T06:45:06;7.10;;;3.50;;
57111;SDS011;42992;49.084;19.300;2023-07-20T06:47:31;7.47;;;3.13;;
57111;SDS011;42992;49.084;19.300;2023-07-20T06:49:56;6.97;;;3.30;;
57111;SDS011;42992;49.084;19.300;2023-07-20T06:52:21;6.70;;;3.13;;
57111;SDS011;42992;49.084;19.300;2023-07-20T06:54:47;6.63;;;3.28;;
57111;SDS011;42992;49.084;19.300;2023-07-20T06:57:12;8.85;;;3.50;;
57111;SDS011;42992;49.084;19.300;2023-07-20T06:59:37;6.22;;;3.08;;
57111;SDS011;42992;49.084;19.300;2023-07-20T07:02:02;5.88;;;3.17;;
57111;SDS011;42992;49.084;19.300;2023-07-20T07:04:28;9.13;;;3.38;;
57111;SDS011;42992;49.084;19.300;2023-07-20T07:06:53;9.45;;;3.97;;
57111;SDS011;42992;49.084;19.300;2023-07-20T07:09:18;5.75;;;3.13;;
57111;SDS011;42992;49.084;19.300;2023-07-20T07:11:44;6.57;;;3.10;;
57111;SDS011;42992;49.084;19.300;2023-07-20T07:14:09;5.70;;;3.08;;
57111;SDS011;42992;49.084;19.300;2023-07-20T07:16:38;5.88;;;3.08;;
57111;SDS011;42992;49.084;19.300;2023-07-20T07:19:03;7.53;;;3.17;;
57111;SDS011;42992;49.084;19.300;2023-07-20T07:21:28;6.32;;;3.33;;
57111;SDS011;42992;49.084;19.300;2023-07-20T07:23:54;9.48;;;3.40;;
57111;SDS011;42992;49.084;19.300;2023-07-20T07:26:22;7.00;;;3.47;;
57111;SDS011;42992;49.084;19.300;2023-07-20T07:28:47;6.88;;;3.50;;
57111;SDS011;42992;49.084;19.300;2023-07-20T07:31:12;6.32;;;3.20;;
57111;SDS011;42992;49.084;19.300;2023-07-20T07:33:37;4.68;;;3.10;;
57111;SDS011;42992;49.084;19.300;2023-07-20T07:36:03;7.75;;;3.20;;
57111;SDS011;42992;49.084;19.300;2023-07-20T07:38:28;6.35;;;3.17;;
57111;SDS011;42992;49.084;19.300;2023-07-20T07:40:54;5.40;;;3.10;;
57111;SDS011;42992;49.084;19.300;2023-07-20T07:43:19;4.85;;;2.85;;
57111;SDS011;42992;49.084;19.300;2023-07-20T07:45:44;7.30;;;3.35;;
57111;SDS011;42992;49.084;19.300;2023-07-20T07:48:09;4.82;;;3.17;;
57111;SDS011;42992;49.084;19.300;2023-07-20T07:50:37;6.72;;;3.17;;
57111;SDS011;42992;49.084;19.300;2023-07-20T07:53:03;8.02;;;3.40;;
57111;SDS011;42992;49.084;19.300;2023-07-20T07:55:28;4.70;;;2.70;;
57111;SDS011;42992;49.084;19.300;2023-07-20T07:57:53;5.85;;;2.88;;
57111;SDS011;42992;49.084;19.300;2023-07-20T08:00:19;5.22;;;3.35;;
57111;SDS011;42992;49.084;19.300;2023-07-20T08:02:45;5.43;;;3.10;;
57111;SDS011;42992;49.084;19.300;2023-07-20T08:05:11;5.43;;;2.95;;
57111;SDS011;42992;49.084;19.300;2023-07-20T08:07:37;5.90;;;2.80;;
57111;SDS011;42992;49.084;19.300;2023-07-20T08:10:02;5.15;;;3.05;;
57111;SDS011;42992;49.084;19.300;2023-07-20T08:12:28;7.22;;;3.05;;
57111;SDS011;42992;49.084;19.300;2023-07-20T08:14:53;6.32;;;2.92;;
57111;SDS011;42992;49.084;19.300;2023-07-20T08:17:18;7.07;;;3.30;;
57111;SDS011;42992;49.084;19.300;2023-07-20T08:19:45;7.13;;;2.95;;
57111;SDS011;42992;49.084;19.300;2023-07-20T08:22:11;6.85;;;3.10;;
57111;SDS011;42992;49.084;19.300;2023-07-20T08:24:39;5.88;;;2.90;;
57111;SDS011;42992;49.084;19.300;2023-07-20T08:27:04;8.18;;;2.70;;
57111;SDS011;42992;49.084;19.300;2023-07-20T08:29:29;5.38;;;2.70;;
57111;SDS011;42992;49.084;19.300;2023-07-20T08:31:55;5.60;;;3.07;;
57111;SDS011;42992;49.084;19.300;2023-07-20T08:34:20;5.53;;;2.80;;
57111;SDS011;42992;49.084;19.300;2023-07-20T08:36:45;9.90;;;3.03;;
57111;SDS011;42992;49.084;19.300;2023-07-20T08:39:10;4.60;;;2.83;;
57111;SDS011;42992;49.084;19.300;2023-07-20T08:41:36;4.78;;;2.83;;
57111;SDS011;42992;49.084;19.300;2023-07-20T08:44:02;7.70;;;2.97;;
57111;SDS011;42992;49.084;19.300;2023-07-20T08:46:27;4.32;;;2.72;;
57111;SDS011;42992;49.084;19.300;2023-07-20T08:48:53;4.68;;;2.50;;
57111;SDS011;42992;49.084;19.300;2023-07-20T08:51:19;8.23;;;2.47;;
57111;SDS011;42992;49.084;19.300;2023-07-20T08:53:46;5.20;;;2.22;;
57111;SDS011;42992;49.084;19.300;2023-07-20T08:56:12;6.07;;;2.78;;
57111;SDS011;42992;49.084;19.300;2023-07-20T08:58:39;5.15;;;2.70;;
57111;SDS011;42992;49.084;19.300;2023-07-20T09:01:04;5.63;;;2.90;;
57111;SDS011;42992;49.084;19.300;2023-07-20T09:03:30;7.43;;;2.60;;
57111;SDS011;42992;49.084;19.300;2023-07-20T09:05:55;4.75;;;2.50;;
57111;SDS011;42992;49.084;19.300;2023-07-20T09:08:21;4.57;;;2.53;;
57111;SDS011;42992;49.084;19.300;2023-07-20T09:10:46;5.15;;;2.70;;
57111;SDS011;42992;49.084;19.300;2023-07-20T09:13:15;6.30;;;3.10;;
57111;SDS011;42992;49.084;19.300;2023-07-20T09:15:45;7.13;;;2.95;;
57111;SDS011;42992;49.084;19.300;2023-07-20T09:18:11;6.72;;;2.42;;
57111;SDS011;42992;49.084;19.300;2023-07-20T09:20:36;5.40;;;2.47;;
57111;SDS011;42992;49.084;19.300;2023-07-20T09:23:04;4.45;;;2.38;;
57111;SDS011;42992;49.084;19.300;2023-07-20T09:25:29;5.50;;;2.20;;
57111;SDS011;42992;49.084;19.300;2023-07-20T09:27:56;5.13;;;2.40;;
57111;SDS011;42992;49.084;19.300;2023-07-20T09:30:24;3.38;;;1.98;;
57111;SDS011;42992;49.084;19.300;2023-07-20T09:32:50;5.93;;;2.15;;
57111;SDS011;42992;49.084;19.300;2023-07-20T09:35:19;3.75;;;2.38;;
57111;SDS011;42992;49.084;19.300;2023-07-20T09:37:54;7.95;;;2.40;;
57111;SDS011;42992;49.084;19.300;2023-07-20T09:40:22;7.72;;;2.60;;
57111;SDS011;42992;49.084;19.300;2023-07-20T09:42:47;5.15;;;2.15;;
57111;SDS011;42992;49.084;19.300;2023-07-20T09:45:13;6.32;;;2.00;;
57111;SDS011;42992;49.084;19.300;2023-07-20T09:47:39;5.60;;;2.03;;
57111;SDS011;42992;49.084;19.300;2023-07-20T09:50:05;6.00;;;2.00;;
57111;SDS011;42992;49.084;19.300;2023-07-20T09:52:35;3.65;;;1.73;;
57111;SDS011;42992;49.084;19.300;2023-07-20T09:55:01;6.97;;;2.10;;
57111;SDS011;42992;49.084;19.300;2023-07-20T09:57:27;5.03;;;1.90;;
57111;SDS011;42992;49.084;19.300;2023-07-20T09:59:53;3.40;;;1.70;;
57111;SDS011;42992;49.084;19.300;2023-07-20T10:02:23;3.92;;;1.80;;
57111;SDS011;42992;49.084;19.300;2023-07-20T10:04:51;3.45;;;2.00;;
57111;SDS011;42992;49.084;19.300;2023-07-20T10:07:17;3.30;;;1.75;;
57111;SDS011;42992;49.084;19.300;2023-07-20T10:09:46;5.00;;;1.60;;
57111;SDS011;42992;49.084;19.300;2023-07-20T10:12:12;6.43;;;1.92;;
57111;SDS011;42992;49.084;19.300;2023-07-20T10:14:38;4.07;;;1.85;;
57111;SDS011;42992;49.084;19.300;2023-07-20T10:17:05;6.35;;;1.80;;
57111;SDS011;42992;49.084;19.300;2023-07-20T10:22:03;3.15;;;1.48;;
57111;SDS011;42992;49.084;19.300;2023-07-20T10:24:28;5.07;;;2.13;;
57111;SDS011;42992;49.084;19.300;2023-07-20T10:26:55;6.35;;;1.80;;
57111;SDS011;42992;49.084;19.300;2023-07-20T10:29:20;4.22;;;1.70;;
57111;SDS011;42992;49.084;19.300;2023-07-20T10:31:46;5.50;;;1.75;;
57111;SDS011;42992;49.084;19.300;2023-07-20T10:34:12;6.28;;;2.00;;
57111;SDS011;42992;49.084;19.300;2023-07-20T10:36:43;4.05;;;1.90;;
57111;SDS011;42992;49.084;19.300;2023-07-20T10:39:13;3.45;;;1.88;;
57111;SDS011;42992;49.084;19.300;2023-07-20T10:41:50;3.65;;;1.70;;
57111;SDS011;42992;49.084;19.300;2023-07-20T10:44:18;5.25;;;2.03;;
57111;SDS011;42992;49.084;19.300;2023-07-20T10:46:44;4.15;;;2.00;;
57111;SDS011;42992;49.084;19.300;2023-07-20T10:49:10;3.63;;;1.88;;
57111;SDS011;42992;49.084;19.300;2023-07-20T10:51:40;4.43;;;1.70;;
57111;SDS011;42992;49.084;19.300;2023-07-20T10:54:11;5.68;;;2.17;;
57111;SDS011;42992;49.084;19.300;2023-07-20T10:56:55;3.67;;;1.85;;
57111;SDS011;42992;49.084;19.300;2023-07-20T11:01:49;5.30;;;1.95;;
57111;SDS011;42992;49.084;19.300;2023-07-20T11:04:15;3.85;;;2.10;;
57111;SDS011;42992;49.084;19.300;2023-07-20T11:06:45;4.22;;;1.70;;
57111;SDS011;42992;49.084;19.300;2023-07-20T11:09:14;3.95;;;2.00;;
57111;SDS011;42992;49.084;19.300;2023-07-20T11:11:40;4.47;;;1.90;;
57111;SDS011;42992;49.084;19.300;2023-07-20T11:14:07;4.68;;;2.08;;
57111;SDS011;42992;49.084;19.300;2023-07-20T11:16:40;3.20;;;1.88;;
57111;SDS011;42992;49.084;19.300;2023-07-20T11:19:10;5.20;;;2.00;;
57111;SDS011;42992;49.084;19.300;2023-07-20T11:21:40;4.80;;;1.77;;
57111;SDS011;42992;49.084;19.300;2023-07-20T11:24:06;4.47;;;1.80;;
57111;SDS011;42992;49.084;19.300;2023-07-20T11:29:13;5.05;;;2.10;;
57111;SDS011;42992;49.084;19.300;2023-07-20T11:31:38;6.95;;;1.85;;
57111;SDS011;42992;49.084;19.300;2023-07-20T11:34:04;3.83;;;1.75;;
57111;SDS011;42992;49.084;19.300;2023-07-20T11:36:29;5.07;;;1.80;;
57111;SDS011;42992;49.084;19.300;2023-07-20T11:38:55;3.65;;;1.90;;
57111;SDS011;42992;49.084;19.300;2023-07-20T11:41:20;5.43;;;1.70;;
57111;SDS011;42992;49.084;19.300;2023-07-20T11:43:46;3.38;;;1.80;;
57111;SDS011;42992;49.084;19.300;2023-07-20T11:46:12;7.38;;;1.70;;
57111;SDS011;42992;49.084;19.300;2023-07-20T11:48:37;3.53;;;1.67;;
57111;SDS011;42992;49.084;19.300;2023-07-20T11:51:06;2.88;;;1.52;;
57111;SDS011;42992;49.084;19.300;2023-07-20T11:53:37;4.95;;;1.50;;
57111;SDS011;42992;49.084;19.300;2023-07-20T11:56:03;2.78;;;1.33;;
57111;SDS011;42992;49.084;19.300;2023-07-20T11:58:28;2.97;;;1.60;;
57111;SDS011;42992;49.084;19.300;2023-07-20T12:00:54;3.25;;;1.55;;
57111;SDS011;42992;49.084;19.300;2023-07-20T12:03:19;3.30;;;1.55;;
57111;SDS011;42992;49.084;19.300;2023-07-20T12:05:44;5.15;;;1.80;;
57111;SDS011;42992;49.084;19.300;2023-07-20T12:08:10;4.97;;;1.40;;
57111;SDS011;42992;49.084;19.300;2023-07-20T12:10:38;4.72;;;1.45;;
57111;SDS011;42992;49.084;19.300;2023-07-20T12:13:08;3.45;;;1.40;;
57111;SDS011;42992;49.084;19.300;2023-07-20T12:15:34;3.08;;;1.70;;
57111;SDS011;42992;49.084;19.300;2023-07-20T12:18:01;4.15;;;1.50;;
57111;SDS011;42992;49.084;19.300;2023-07-20T12:20:30;3.78;;;1.52;;
57111;SDS011;42992;49.084;19.300;2023-07-20T12:22:57;3.20;;;1.40;;
57111;SDS011;42992;49.084;19.300;2023-07-20T12:25:23;2.78;;;1.30;;
57111;SDS011;42992;49.084;19.300;2023-07-20T12:27:48;2.92;;;1.30;;
57111;SDS011;42992;49.084;19.300;2023-07-20T12:30:14;2.95;;;1.30;;
57111;SDS011;42992;49.084;19.300;2023-07-20T12:32:39;3.03;;;1.25;;
57111;SDS011;42992;49.084;19.300;2023-07-20T12:35:05;3.22;;;1.20;;
57111;SDS011;42992;49.084;19.300;2023-07-20T12:37:31;2.95;;;1.20;;
57111;SDS011;42992;49.084;19.300;2023-07-20T12:39:56;3.42;;;1.35;;
57111;SDS011;42992;49.084;19.300;2023-07-20T12:42:21;4.78;;;1.50;;
57111;SDS011;42992;49.084;19.300;2023-07-20T12:44:48;5.20;;;1.40;;
57111;SDS011;42992;49.084;19.300;2023-07-20T12:47:13;3.03;;;1.33;;
57111;SDS011;42992;49.084;19.300;2023-07-20T12:49:39;3.95;;;1.30;;
57111;SDS011;42992;49.084;19.300;2023-07-20T12:52:04;4.75;;;1.55;;
57111;SDS011;42992;49.084;19.300;2023-07-20T12:54:29;3.60;;;1.55;;
57111;SDS011;42992;49.084;19.300;2023-07-20T12:56:55;2.80;;;1.20;;
57111;SDS011;42992;49.084;19.300;2023-07-20T12:59:20;3.07;;;1.30;;
57111;SDS011;42992;49.084;19.300;2023-07-20T13:01:45;3.33;;;1.20;;
57111;SDS011;42992;49.084;19.300;2023-07-20T13:04:11;2.80;;;1.10;;
57111;SDS011;42992;49.084;19.300;2023-07-20T13:06:36;10.55;;;1.50;;
57111;SDS011;42992;49.084;19.300;2023-07-20T13:09:02;4.25;;;1.27;;
57111;SDS011;42992;49.084;19.300;2023-07-20T13:11:27;3.83;;;1.38;;
57111;SDS011;42992;49.084;19.300;2023-07-20T13:13:52;2.93;;;1.30;;
57111;SDS011;42992;49.084;19.300;2023-07-20T13:16:20;2.55;;;1.35;;
57111;SDS011;42992;49.084;19.300;2023-07-20T13:18:46;3.53;;;1.20;;
57111;SDS011;42992;49.084;19.300;2023-07-20T13:21:11;3.13;;;1.30;;
57111;SDS011;42992;49.084;19.300;2023-07-20T13:23:36;3.15;;;1.27;;
57111;SDS011;42992;49.084;19.300;2023-07-20T13:26:02;6.40;;;1.38;;
57111;SDS011;42992;49.084;19.300;2023-07-20T13:28:28;3.13;;;1.33;;
57111;SDS011;42992;49.084;19.300;2023-07-20T13:30:53;4.93;;;1.20;;
57111;SDS011;42992;49.084;19.300;2023-07-20T13:33:18;3.33;;;1.30;;
57111;SDS011;42992;49.084;19.300;2023-07-20T13:35:43;3.10;;;1.33;;
57111;SDS011;42992;49.084;19.300;2023-07-20T13:38:08;3.43;;;1.40;;
57111;SDS011;42992;49.084;19.300;2023-07-20T13:40:34;4.05;;;1.30;;
57111;SDS011;42992;49.084;19.300;2023-07-20T13:43:00;3.75;;;1.10;;
57111;SDS011;42992;49.084;19.300;2023-07-20T13:45:25;3.03;;;1.30;;
57111;SDS011;42992;49.084;19.300;2023-07-20T13:47:50;2.60;;;1.40;;
57111;SDS011;42992;49.084;19.300;2023-07-20T13:50:16;3.53;;;1.20;;
57111;SDS011;42992;49.084;19.300;2023-07-20T13:52:41;3.90;;;1.50;;
57111;SDS011;42992;49.084;19.300;2023-07-20T13:55:06;2.90;;;1.40;;
57111;SDS011;42992;49.084;19.300;2023-07-20T13:57:32;3.38;;;1.35;;
57111;SDS011;42992;49.084;19.300;2023-07-20T13:59:57;2.42;;;1.25;;
57111;SDS011;42992;49.084;19.300;2023-07-20T14:02:23;6.05;;;1.80;;
57111;SDS011;42992;49.084;19.300;2023-07-20T14:04:48;3.40;;;1.47;;
57111;SDS011;42992;49.084;19.300;2023-07-20T14:07:13;2.67;;;1.30;;
57111;SDS011;42992;49.084;19.300;2023-07-20T14:09:39;3.70;;;1.27;;
57111;SDS011;42992;49.084;19.300;2023-07-20T14:12:04;7.40;;;1.50;;
57111;SDS011;42992;49.084;19.300;2023-07-20T14:14:29;4.85;;;1.40;;
57111;SDS011;42992;49.084;19.300;2023-07-20T14:16:54;2.97;;;1.27;;
57111;SDS011;42992;49.084;19.300;2023-07-20T14:19:21;7.43;;;1.50;;
57111;SDS011;42992;49.084;19.300;2023-07-20T14:21:46;6.93;;;1.60;;
57111;SDS011;42992;49.084;19.300;2023-07-20T14:24:12;5.25;;;1.70;;
57111;SDS011;42992;49.084;19.300;2023-07-20T14:26:37;3.42;;;1.33;;
57111;SDS011;42992;49.084;19.300;2023-07-20T14:29:03;4.93;;;1.40;;
57111;SDS011;42992;49.084;19.300;2023-07-20T14:31:28;2.80;;;1.50;;
57111;SDS011;42992;49.084;19.300;2023-07-20T14:33:54;4.13;;;1.60;;
57111;SDS011;42992;49.084;19.300;2023-07-20T14:36:19;3.45;;;1.38;;
57111;SDS011;42992;49.084;19.300;2023-07-20T14:38:45;4.78;;;1.27;;
57111;SDS011;42992;49.084;19.300;2023-07-20T14:41:11;4.78;;;1.38;;
57111;SDS011;42992;49.084;19.300;2023-07-20T14:43:37;3.10;;;1.35;;
57111;SDS011;42992;49.084;19.300;2023-07-20T14:46:03;3.67;;;1.40;;